createdAt,value
2023-01-11T00:01:46.632Z,66.40
2023-01-11T00:04:16.281Z,66.30
2023-01-11T00:06:45.998Z,66.10
2023-01-11T00:09:16.111Z,66.10
2023-01-11T00:11:45.342Z,66.10
2023-01-11T00:14:15.376Z,66.00
2023-01-11T00:16:44.575Z,66.10
2023-01-11T00:19:15.191Z,66.10
2023-01-11T00:21:44.156Z,66.00
2023-01-11T00:24:13.169Z,66.30
2023-01-11T00:26:42.170Z,66.30
2023-01-11T00:29:11.196Z,66.30
2023-01-11T00:31:40.610Z,66.60
2023-01-11T00:34:09.919Z,66.80
2023-01-11T00:36:40.244Z,67.00
2023-01-11T00:39:09.403Z,66.90
2023-01-11T00:41:56.356Z,67.50
2023-01-11T00:44:43.285Z,67.60
2023-01-11T00:47:33.201Z,67.10
2023-01-11T00:50:02.553Z,66.80
2023-01-11T00:52:33.146Z,66.90
2023-01-11T00:55:02.104Z,67.00
2023-01-11T00:57:31.178Z,66.90
2023-01-11T01:00:00.497Z,67.20
2023-01-11T01:02:29.632Z,67.10
2023-01-11T01:04:59.080Z,67.00
2023-01-11T01:07:28.056Z,67.70
2023-01-11T01:09:58.581Z,67.10
2023-01-11T01:12:41.270Z,67.10
2023-01-11T01:15:11.037Z,67.10
2023-01-11T01:17:40.242Z,67.10
2023-01-11T01:20:10.017Z,67.50
2023-01-11T01:22:38.881Z,67.60
2023-01-11T01:25:10.197Z,67.40
2023-01-11T01:27:39.127Z,67.00
2023-01-11T01:30:11.055Z,67.10
2023-01-11T01:32:40.213Z,66.90
2023-01-11T01:35:09.742Z,66.90
2023-01-11T01:37:39.072Z,67.10
2023-01-11T01:40:11.545Z,67.10
2023-01-11T01:42:40.323Z,67.00
2023-01-11T01:45:20.135Z,67.10
2023-01-11T01:47:52.633Z,67.10
2023-01-11T01:50:25.502Z,66.80
2023-01-11T01:53:00.192Z,66.80
2023-01-11T01:55:34.744Z,66.70
2023-01-11T01:58:08.415Z,66.60
2023-01-11T02:00:39.862Z,66.60
2023-01-11T02:03:11.131Z,66.50
2023-01-11T02:05:40.425Z,66.90
2023-01-11T02:08:15.145Z,67.40
2023-01-11T02:10:46.576Z,67.20
2023-01-11T02:13:16.379Z,67.40
2023-01-11T02:15:45.562Z,67.80
2023-01-11T02:18:15.176Z,67.70
2023-01-11T02:21:01.914Z,67.50
2023-01-11T02:23:53.449Z,67.50
2023-01-11T02:27:10.516Z,67.50
2023-01-11T02:29:48.636Z,67.60
2023-01-11T02:32:26.539Z,67.60
2023-01-11T02:35:04.883Z,67.90
2023-01-11T02:37:48.713Z,68.10
2023-01-11T02:40:24.361Z,68.10
2023-01-11T02:43:15.103Z,68.50
2023-01-11T02:45:53.668Z,68.50
2023-01-11T02:48:32.447Z,68.80
2023-01-11T02:51:07.471Z,69.00
2023-01-11T02:53:40.785Z,69.20
2023-01-11T02:56:14.653Z,69.80
2023-01-11T02:58:47.060Z,70.20
2023-01-11T03:01:19.035Z,70.30
2023-01-11T03:03:48.201Z,70.30
2023-01-11T03:06:20.762Z,70.30
2023-01-11T03:09:03.735Z,70.50
2023-01-11T03:12:06.750Z,70.90
2023-01-11T03:14:44.776Z,71.20
2023-01-11T03:17:24.661Z,71.10
2023-01-11T03:19:55.833Z,71.40
2023-01-11T03:22:30.391Z,71.40
2023-01-11T03:25:10.056Z,71.40
2023-01-11T03:27:49.725Z,71.60
2023-01-11T03:30:26.051Z,71.50
2023-01-11T03:33:04.240Z,71.50
2023-01-11T03:35:40.285Z,71.70
2023-01-11T03:38:16.513Z,71.80
2023-01-11T03:40:49.986Z,71.70
2023-01-11T03:43:22.572Z,71.70
2023-01-11T03:45:56.015Z,71.80
2023-01-11T03:48:32.112Z,71.80
2023-01-11T03:51:02.763Z,71.90
2023-01-11T03:53:34.822Z,72.00
2023-01-11T03:56:06.973Z,72.10
2023-01-11T03:58:36.477Z,72.80
2023-01-11T04:01:05.865Z,72.10
2023-01-11T04:03:36.516Z,72.10
2023-01-11T04:06:06.137Z,72.10
2023-01-11T04:08:35.437Z,72.20
2023-01-11T04:11:05.928Z,72.30
2023-01-11T04:13:35.048Z,72.40
2023-01-11T04:16:04.197Z,72.50
2023-01-11T04:18:33.293Z,73.00
2023-01-11T04:21:03.797Z,72.90
2023-01-11T04:23:32.777Z,72.70
2023-01-11T04:26:01.782Z,72.60
2023-01-11T04:28:30.984Z,72.60
2023-01-11T04:31:00.149Z,72.80
2023-01-11T04:33:29.368Z,72.70
2023-01-11T04:35:58.369Z,72.80
2023-01-11T04:38:29.045Z,72.90
2023-01-11T04:41:12.037Z,72.80
2023-01-11T04:43:41.106Z,73.00
2023-01-11T04:46:11.402Z,73.10
2023-01-11T04:48:41.270Z,73.10
2023-01-11T04:51:10.735Z,73.20
2023-01-11T04:53:41.352Z,73.30
2023-01-11T04:56:12.011Z,73.50
2023-01-11T04:58:40.906Z,73.60
2023-01-11T05:01:10.848Z,73.60
2023-01-11T05:03:39.866Z,73.70
2023-01-11T05:06:09.796Z,73.60
2023-01-11T05:08:39.561Z,73.80
2023-01-11T05:11:10.722Z,73.80
2023-01-11T05:13:42.951Z,73.90
2023-01-11T05:16:13.698Z,73.90
2023-01-11T05:18:43.736Z,74.00
2023-01-11T05:21:14.576Z,74.10
2023-01-11T05:23:45.081Z,74.10
2023-01-11T05:26:17.756Z,74.20
2023-01-11T05:28:46.941Z,74.30
2023-01-11T05:31:16.355Z,74.30
2023-01-11T05:33:45.738Z,74.40
2023-01-11T05:36:17.076Z,74.50
2023-01-11T05:38:47.759Z,74.50
2023-01-11T05:41:19.431Z,74.70
2023-01-11T05:44:09.074Z,74.70
2023-01-11T05:46:39.743Z,74.80
2023-01-11T05:49:10.218Z,74.80
2023-01-11T05:51:39.343Z,74.90
2023-01-11T05:54:11.307Z,75.00
2023-01-11T05:56:42.576Z,75.10
2023-01-11T05:59:12.364Z,75.20
2023-01-11T06:01:41.601Z,75.40
2023-01-11T06:04:10.819Z,75.40
2023-01-11T06:06:39.905Z,75.40
2023-01-11T06:09:09.258Z,75.40
2023-01-11T06:11:38.680Z,76.10
2023-01-11T06:14:09.159Z,75.60
2023-01-11T06:16:38.737Z,75.60
2023-01-11T06:19:08.628Z,75.60
2023-01-11T06:21:38.756Z,75.50
2023-01-11T06:24:08.561Z,75.60
2023-01-11T06:26:37.700Z,75.60
2023-01-11T06:29:08.189Z,75.60
2023-01-11T06:31:37.523Z,75.50
2023-01-11T06:34:06.581Z,75.50
2023-01-11T06:36:35.912Z,75.40
2023-01-11T06:39:05.481Z,75.30
2023-01-11T06:41:34.797Z,75.30
2023-01-11T06:44:04.219Z,75.90
2023-01-11T06:46:34.938Z,75.10
2023-01-11T06:49:04.451Z,75.10
2023-01-11T06:51:33.434Z,75.10
2023-01-11T06:54:02.667Z,75.20
2023-01-11T06:56:31.796Z,75.20
2023-01-11T06:59:00.928Z,75.10
2023-01-11T07:01:30.897Z,75.10
2023-01-11T07:04:01.345Z,75.20
2023-01-11T07:06:32.269Z,75.00
2023-01-11T07:09:01.426Z,75.00
2023-01-11T07:11:31.642Z,74.90
2023-01-11T07:14:01.043Z,74.90
2023-01-11T07:16:30.086Z,74.90
2023-01-11T07:18:59.052Z,74.90
2023-01-11T07:21:29.603Z,75.10
2023-01-11T07:23:58.801Z,75.10
2023-01-11T07:26:28.229Z,75.30
2023-01-11T07:28:57.442Z,75.40
2023-01-11T07:31:26.518Z,75.30
2023-01-11T07:33:55.818Z,75.40
2023-01-11T07:36:25.275Z,75.60
2023-01-11T07:38:55.628Z,75.50
2023-01-11T07:41:42.412Z,75.70
2023-01-11T07:44:14.279Z,75.70
2023-01-11T07:46:43.743Z,76.00
2023-01-11T07:49:13.436Z,76.10
2023-01-11T07:51:42.653Z,76.30
2023-01-11T07:54:13.312Z,76.30
2023-01-11T07:56:42.520Z,76.20
2023-01-11T07:59:11.930Z,76.10
2023-01-11T08:01:44.224Z,76.30
2023-01-11T08:04:16.958Z,76.30
2023-01-11T08:06:46.126Z,76.20
2023-01-11T08:09:16.687Z,76.00
2023-01-11T08:12:15.195Z,76.30
2023-01-11T08:14:44.631Z,76.30
2023-01-11T08:17:15.602Z,76.20
2023-01-11T08:19:44.894Z,76.20
2023-01-11T08:22:13.867Z,76.00
2023-01-11T08:24:44.382Z,76.10
2023-01-11T08:27:13.848Z,76.10
2023-01-11T08:29:44.251Z,76.10
2023-01-11T08:32:14.052Z,76.20
2023-01-11T08:34:43.259Z,76.10
2023-01-11T08:37:12.648Z,76.00
2023-01-11T08:39:41.847Z,76.00
2023-01-11T08:42:12.581Z,76.00
2023-01-11T08:44:41.706Z,76.00
2023-01-11T08:47:10.759Z,76.00
2023-01-11T08:49:42.810Z,75.90
2023-01-11T08:52:14.782Z,76.10
2023-01-11T08:54:44.189Z,76.20
2023-01-11T08:57:14.715Z,76.30
2023-01-11T08:59:44.110Z,76.30
2023-01-11T09:02:13.967Z,76.20
2023-01-11T09:04:43.361Z,76.20
2023-01-11T09:07:12.438Z,76.30
2023-01-11T09:09:41.575Z,76.30
2023-01-11T09:12:11.343Z,76.50
2023-01-11T09:14:42.690Z,76.50
2023-01-11T09:17:11.811Z,76.60
2023-01-11T09:19:41.046Z,76.80
2023-01-11T09:22:10.183Z,76.80
2023-01-11T09:24:39.431Z,76.70
2023-01-11T09:27:08.603Z,76.80
2023-01-11T09:29:37.917Z,76.80
2023-01-11T09:32:08.545Z,76.90
2023-01-11T09:34:37.740Z,77.10
2023-01-11T09:37:07.229Z,77.10
2023-01-11T09:39:37.113Z,77.10
2023-01-11T09:42:32.332Z,76.90
2023-01-11T09:45:08.947Z,77.00
2023-01-11T09:47:43.435Z,77.00
2023-01-11T09:50:17.317Z,77.10
2023-01-11T09:52:49.765Z,77.10
2023-01-11T09:55:25.584Z,77.20
2023-01-11T09:58:05.196Z,77.30
2023-01-11T10:00:45.389Z,77.60
2023-01-11T10:03:38.076Z,77.50
2023-01-11T10:06:15.105Z,77.60
2023-01-11T10:18:28.855Z,77.70
2023-01-11T10:18:38.837Z,77.70
2023-01-11T10:21:11.057Z,77.90
2023-01-11T10:23:49.583Z,77.80
2023-01-11T10:26:29.412Z,78.00
2023-01-11T10:29:38.566Z,78.10
2023-01-11T10:32:45.895Z,78.20
2023-01-11T10:35:43.639Z,78.20
2023-01-11T10:38:43.636Z,78.20
2023-01-11T10:41:26.609Z,78.30
2023-01-11T10:44:06.161Z,78.40
2023-01-11T10:46:40.015Z,78.50
2023-01-11T10:49:34.483Z,78.60
2023-01-11T10:52:18.527Z,78.90
2023-01-11T10:54:54.836Z,78.80
2023-01-11T10:57:36.809Z,78.80
2023-01-11T11:00:25.056Z,78.90
2023-01-11T11:03:27.292Z,79.10
2023-01-11T11:06:03.062Z,79.10
2023-01-11T11:08:38.814Z,79.80
2023-01-11T11:11:14.906Z,79.10
2023-01-11T11:13:52.862Z,79.20
2023-01-11T11:16:37.380Z,79.20
2023-01-11T11:19:11.476Z,79.50
2023-01-11T11:21:43.104Z,79.30
2023-01-11T11:24:20.872Z,79.40
2023-01-11T11:26:58.449Z,79.60
2023-01-11T11:29:30.753Z,79.50
2023-01-11T11:32:02.482Z,80.30
2023-01-11T11:34:32.008Z,79.50
2023-01-11T11:37:02.183Z,79.40
2023-01-11T11:39:33.327Z,79.40
2023-01-11T11:42:09.919Z,79.40
2023-01-11T11:44:39.428Z,79.50
2023-01-11T11:47:16.616Z,79.40
2023-01-11T11:49:46.679Z,79.40
2023-01-11T11:52:18.712Z,79.40
2023-01-11T11:54:53.044Z,79.60
2023-01-11T11:57:28.324Z,79.60
2023-01-11T12:00:05.710Z,79.60
2023-01-11T12:02:37.398Z,79.70
2023-01-11T12:05:10.171Z,79.80
2023-01-11T12:07:54.819Z,79.70
2023-01-11T12:10:26.737Z,80.00
2023-01-11T12:12:59.205Z,79.90
2023-01-11T12:15:30.474Z,79.90
2023-01-11T12:18:24.493Z,79.80
2023-01-11T12:20:53.799Z,79.80
2023-01-11T12:23:25.492Z,79.70
2023-01-11T12:26:22.937Z,79.80
2023-01-11T12:29:18.386Z,80.00
2023-01-11T12:32:03.381Z,80.00
2023-01-11T12:34:49.840Z,80.00
2023-01-11T12:37:28.472Z,80.00
2023-01-11T12:40:08.004Z,80.10
2023-01-11T12:42:59.717Z,80.10
2023-01-11T12:45:40.392Z,80.20
2023-01-11T12:48:24.512Z,80.20
2023-01-11T12:51:08.662Z,80.10
2023-01-11T12:53:52.205Z,80.10
2023-01-11T12:56:42.577Z,80.10
2023-01-11T12:59:30.371Z,80.00
2023-01-11T13:02:14.314Z,79.90
2023-01-11T13:05:00.146Z,79.90
2023-01-11T13:07:41.996Z,80.70
2023-01-11T13:10:23.911Z,79.90
2023-01-11T13:13:00.359Z,79.90
2023-01-11T13:15:41.978Z,79.80
2023-01-11T13:18:24.208Z,79.80
2023-01-11T13:21:01.803Z,80.00
2023-01-11T13:23:39.361Z,80.10
2023-01-11T13:26:21.026Z,80.20
2023-01-11T13:28:54.509Z,80.20
2023-01-11T13:31:25.064Z,80.20
2023-01-11T13:34:01.342Z,80.20
2023-01-11T13:36:39.892Z,80.20
2023-01-11T13:39:17.458Z,80.30
2023-01-11T13:41:50.266Z,80.50
2023-01-11T13:44:25.286Z,80.60
2023-01-11T13:47:04.161Z,81.00
2023-01-11T13:49:48.725Z,81.40
2023-01-11T13:52:19.590Z,81.50
2023-01-11T13:55:00.036Z,81.40
2023-01-11T13:57:41.077Z,81.60
2023-01-11T14:00:21.912Z,81.60
2023-01-11T14:02:56.915Z,81.70
2023-01-11T14:05:34.940Z,81.60
2023-01-11T14:08:22.871Z,81.70
2023-01-11T14:11:00.417Z,81.80
2023-01-11T14:14:15.412Z,81.70
2023-01-11T14:17:02.952Z,81.70
2023-01-11T14:19:38.451Z,81.70
2023-01-11T14:22:26.638Z,81.50
2023-01-11T14:25:02.100Z,81.70
2023-01-11T14:27:54.248Z,81.60
2023-01-11T14:30:38.381Z,81.70
2023-01-11T14:33:38.714Z,81.80
2023-01-11T14:36:45.517Z,81.80
2023-01-11T14:39:38.373Z,81.70
2023-01-11T14:42:31.180Z,81.60
2023-01-11T14:45:14.111Z,81.50
2023-01-11T14:47:59.865Z,81.30
2023-01-11T14:50:41.150Z,81.20
2023-01-11T14:53:17.085Z,81.20
2023-01-11T14:55:49.152Z,81.30
2023-01-11T14:58:25.439Z,81.30
2023-01-11T15:01:13.429Z,81.40
2023-01-11T15:03:56.609Z,81.50
2023-01-11T15:06:26.019Z,82.20
2023-01-11T15:08:56.603Z,81.30
2023-01-11T15:11:40.840Z,81.40
2023-01-11T15:14:25.683Z,81.50
2023-01-11T15:17:16.869Z,81.50
2023-01-11T15:19:47.328Z,81.50
2023-01-11T15:22:27.314Z,81.50
2023-01-11T15:25:02.337Z,81.70
2023-01-11T15:27:35.801Z,81.40
2023-01-11T15:30:28.284Z,81.40
2023-01-11T15:33:44.378Z,81.40
2023-01-11T15:36:14.066Z,81.40
2023-01-11T15:38:51.084Z,81.10
2023-01-11T15:41:45.992Z,81.20
2023-01-11T15:44:37.619Z,81.30
2023-01-11T15:47:32.271Z,82.00
2023-01-11T15:50:20.059Z,81.30
2023-01-11T15:53:23.987Z,81.30
2023-01-11T15:56:20.827Z,81.20
2023-01-11T15:59:21.111Z,81.10
2023-01-11T16:02:22.756Z,81.20
2023-01-11T16:04:54.790Z,81.20
2023-01-11T16:07:33.441Z,81.10
2023-01-11T16:10:36.087Z,81.10
2023-01-11T16:13:20.209Z,81.40
2023-01-11T16:16:00.585Z,81.30
2023-01-11T16:18:38.269Z,81.20
2023-01-11T16:21:12.845Z,81.20
2023-01-11T16:23:42.488Z,81.10
2023-01-11T16:26:17.403Z,81.10
2023-01-11T16:28:51.731Z,81.10
2023-01-11T16:31:21.378Z,81.00
2023-01-11T16:33:53.285Z,81.00
2023-01-11T16:36:24.381Z,81.00
2023-01-11T16:39:03.515Z,81.00
2023-01-11T16:41:41.827Z,81.10
2023-01-11T16:44:23.314Z,81.00
2023-01-11T16:47:11.267Z,81.00
2023-01-11T16:49:43.305Z,81.00
2023-01-11T16:52:39.312Z,81.00
2023-01-11T16:55:17.894Z,81.20
2023-01-11T16:57:50.186Z,81.00
2023-01-11T17:00:23.628Z,81.00
2023-01-11T17:03:02.563Z,81.00
2023-01-11T17:05:33.408Z,81.10
2023-01-11T17:08:25.283Z,81.00
2023-01-11T17:10:56.883Z,81.10
2023-01-11T17:14:04.941Z,81.00
2023-01-11T17:16:39.194Z,81.10
2023-01-11T17:19:13.816Z,80.90
2023-01-11T17:21:50.809Z,81.00
2023-01-11T17:24:23.847Z,80.90
2023-01-11T17:26:56.144Z,80.80
2023-01-11T17:29:30.237Z,80.70
2023-01-11T17:32:02.733Z,80.70
2023-01-11T17:34:34.920Z,81.40
2023-01-11T17:37:10.787Z,80.60
2023-01-11T17:39:44.130Z,80.40
2023-01-11T17:42:33.856Z,80.40
2023-01-11T17:45:14.691Z,80.30
2023-01-11T17:47:46.633Z,80.20
2023-01-11T17:50:36.166Z,80.80
2023-01-11T17:53:15.251Z,79.90
2023-01-11T17:55:52.171Z,79.80
2023-01-11T17:58:26.224Z,79.70
2023-01-11T18:01:17.599Z,79.70
2023-01-11T18:03:48.805Z,79.60
2023-01-11T18:06:24.885Z,79.60
2023-01-11T18:08:58.809Z,79.60
2023-01-11T18:11:30.814Z,79.50
2023-01-11T18:14:02.283Z,79.50
2023-01-11T18:16:32.030Z,79.40
2023-01-11T18:19:03.412Z,79.50
2023-01-11T18:21:51.453Z,79.40
2023-01-11T18:24:33.699Z,79.40
2023-01-11T18:27:18.131Z,79.50
2023-01-11T18:29:50.259Z,79.40
2023-01-11T18:32:20.517Z,79.40
2023-01-11T18:34:52.914Z,79.30
2023-01-11T18:37:22.305Z,79.20
2023-01-11T18:39:54.044Z,79.20
2023-01-11T18:42:28.471Z,79.10
2023-01-11T18:44:57.658Z,78.90
2023-01-11T18:47:29.470Z,78.90
2023-01-11T18:49:59.007Z,78.90
2023-01-11T18:52:29.534Z,78.70
2023-01-11T18:55:01.296Z,78.70
2023-01-11T18:57:31.138Z,78.50
2023-01-11T19:00:00.402Z,78.50
2023-01-11T19:02:33.101Z,78.40
2023-01-11T19:05:02.342Z,78.30
2023-01-11T19:07:31.566Z,78.20
2023-01-11T19:10:02.404Z,78.00
2023-01-11T19:12:31.991Z,77.80
2023-01-11T19:15:00.952Z,77.70
2023-01-11T19:17:30.017Z,77.60
2023-01-11T19:19:59.350Z,77.60
2023-01-11T19:22:28.386Z,77.60
2023-01-11T19:24:57.479Z,77.50
2023-01-11T19:27:27.970Z,77.40
2023-01-11T19:29:58.185Z,77.30
2023-01-11T19:32:27.301Z,77.40
2023-01-11T19:34:58.109Z,77.40
2023-01-11T19:37:27.644Z,77.30
2023-01-11T19:39:56.757Z,77.20
2023-01-11T19:42:27.182Z,77.10
2023-01-11T19:44:56.361Z,77.10
2023-01-11T19:47:25.437Z,77.10
2023-01-11T19:49:58.958Z,77.20
2023-01-11T19:52:29.156Z,77.20
2023-01-11T19:54:58.829Z,77.10
2023-01-11T19:57:29.602Z,76.90
2023-01-11T19:59:58.480Z,76.90
2023-01-11T20:02:27.711Z,77.10
2023-01-11T20:04:56.760Z,76.90
2023-01-11T20:07:25.611Z,77.00
2023-01-11T20:09:54.924Z,77.10
2023-01-11T20:12:24.002Z,77.10
2023-01-11T20:14:57.744Z,77.10
2023-01-11T20:17:26.813Z,77.10
2023-01-11T20:19:56.007Z,77.20
2023-01-11T20:22:25.784Z,77.20
2023-01-11T20:24:56.045Z,77.30
2023-01-11T20:27:25.065Z,77.30
2023-01-11T20:29:55.476Z,77.30
2023-01-11T20:32:40.497Z,77.50
2023-01-11T20:35:11.535Z,77.60
2023-01-11T20:37:40.742Z,77.60
2023-01-11T20:40:13.587Z,77.60
2023-01-11T20:42:43.447Z,77.60
2023-01-11T20:45:14.156Z,77.60
2023-01-11T20:47:43.417Z,77.60
2023-01-11T20:50:12.744Z,77.60
2023-01-11T20:52:41.870Z,77.60
2023-01-11T20:55:11.450Z,77.60
2023-01-11T20:57:40.908Z,77.60
2023-01-11T21:00:14.445Z,77.50
2023-01-11T21:02:44.900Z,77.60
2023-01-11T21:05:14.151Z,77.60
2023-01-11T21:07:43.090Z,77.60
2023-01-11T21:10:12.930Z,77.50
2023-01-11T21:12:42.089Z,77.50
2023-01-11T21:15:11.994Z,77.50
2023-01-11T21:17:41.074Z,77.50
2023-01-11T21:20:12.502Z,77.40
2023-01-11T21:22:41.756Z,77.30
2023-01-11T21:25:11.440Z,77.40
2023-01-11T21:27:40.786Z,77.30
2023-01-11T21:30:11.625Z,77.10
2023-01-11T21:32:40.768Z,77.10
2023-01-11T21:35:11.870Z,76.80
2023-01-11T21:37:40.928Z,76.90
2023-01-11T21:40:11.759Z,76.90
2023-01-11T21:42:40.895Z,76.90
2023-01-11T21:45:11.809Z,76.80
2023-01-11T21:47:41.009Z,76.80
2023-01-11T21:50:12.822Z,76.70
2023-01-11T21:52:41.733Z,76.70
2023-01-11T21:55:11.218Z,76.50
2023-01-11T21:57:40.283Z,76.10
2023-01-11T22:00:10.994Z,76.20
2023-01-11T22:02:41.611Z,76.00
2023-01-11T22:05:12.255Z,75.40
2023-01-11T22:07:43.688Z,75.20
2023-01-11T22:10:15.086Z,75.70
2023-01-11T22:12:44.279Z,75.70
2023-01-11T22:15:13.378Z,75.50
2023-01-11T22:17:42.587Z,75.50
2023-01-11T22:20:15.127Z,75.50
2023-01-11T22:22:44.394Z,75.30
2023-01-11T22:25:13.418Z,75.40
2023-01-11T22:27:42.849Z,75.30
2023-01-11T22:30:13.143Z,75.20
2023-01-11T22:32:43.294Z,75.00
2023-01-11T22:35:13.709Z,74.90
2023-01-11T22:37:42.671Z,74.90
2023-01-11T22:40:13.040Z,74.80
2023-01-11T22:42:42.474Z,74.80
2023-01-11T22:45:12.630Z,74.50
2023-01-11T22:47:41.921Z,74.60
2023-01-11T22:50:13.081Z,74.70
2023-01-11T22:52:42.079Z,74.40
2023-01-11T22:55:11.453Z,74.70
2023-01-11T22:57:40.551Z,75.30
2023-01-11T23:00:12.277Z,74.20
2023-01-11T23:02:41.376Z,74.10
2023-01-11T23:05:10.626Z,74.20
2023-01-11T23:07:40.914Z,74.20
2023-01-11T23:10:13.676Z,74.00
2023-01-11T23:13:00.226Z,74.20
2023-01-11T23:15:29.322Z,74.40
2023-01-11T23:17:58.382Z,74.30
2023-01-11T23:20:27.423Z,74.20
2023-01-11T23:22:57.889Z,74.20
2023-01-11T23:25:26.929Z,74.00
2023-01-11T23:27:56.364Z,74.30
2023-01-11T23:30:25.407Z,74.20
2023-01-11T23:32:54.805Z,74.20
2023-01-11T23:35:24.116Z,74.20
2023-01-11T23:37:56.933Z,74.30
2023-01-11T23:40:26.138Z,74.20
2023-01-11T23:42:54.189Z,74.40
2023-01-11T23:45:24.035Z,74.50
2023-01-11T23:47:52.065Z,74.40
2023-01-11T23:50:21.408Z,74.40
2023-01-11T23:52:50.212Z,74.40
2023-01-11T23:55:20.609Z,74.40
2023-01-11T23:58:08.949Z,74.30
